Capt. Leroy — WCZ5746 — position and weather

sailwx.info

Track history (hours):
 
Tides and Currents Weather Stations Pressure Air Temp Water Temp Dewpoint Dewpoint Depression Visibility Wind Speed Wind Dir Waves Ship Positions

Capt. Leroy

Owner: MISS MONIE TOWING INC, HULL, TX. More information available from US FCC via Universal Licensing System and Coast Guard Vessel Documentation Center.

Last reported at 2017-Dec-11 03:52 UTC. Time now 2017-Dec-13 22:35 UTC.
Position N 29°46' W 095°06'.

Length 21 m.

Type: Towing. MMSI: 366961670.

Date/timePositionNaut miles runAvg speedWind from/ knotsBaromVisibWave heightAir tempDewpointWater temp
2017-Dec-11 03:52N 29°46' W 095°06'2 4.2
2017-Dec-11 03:27N 29°45' W 095°06'3 6.7
2017-Dec-11 03:00N 29°44' W 095°10'2 0.9
2017-Dec-11 00:27N 29°44' W 095°12'3 6.0
2017-Dec-11 00:00N 29°44' W 095°09'4 6.0
2017-Dec-10 23:25N 29°46' W 095°05'1 1.6
2017-Dec-10 22:48N 29°46' W 095°06'1 4.8
2017-Dec-10 22:30N 29°46' W 095°05'3 6.2
2017-Dec-10 21:56N 29°44' W 095°01'2 5.8
2017-Dec-10 21:30N 29°42' W 094°60'1 2.2
2017-Dec-10 21:00N 29°41' W 095°01'0 0.0
2017-Dec-10 19:34N 29°41' W 095°01'0 0.1
2017-Dec-10 19:30N 29°41' W 095°01'0 0.0
2017-Dec-10 19:00N 29°41' W 095°01'0 0.0
2017-Dec-10 18:30N 29°41' W 095°01'0 0.0
2017-Dec-10 18:00N 29°41' W 095°01'7 0.6
2017-Dec-10 05:43N 29°46' W 095°06'1 4.2
2017-Dec-10 05:30N 29°46' W 095°05'1 2.0
2017-Dec-10 04:57N 29°45' W 095°06'0 0.0
2017-Dec-10 04:30N 29°45' W 095°06'0 0.0
2017-Dec-10 03:58N 29°45' W 095°06'0 0.0
2017-Dec-10 03:24N 29°45' W 095°06'0 0.0
2017-Dec-10 02:50N 29°45' W 095°06'2 4.9
2017-Dec-10 02:30N 29°44' W 095°08'3 6.9
2017-Dec-10 02:00N 29°45' W 095°12'1 1.5
2017-Dec-10 01:30N 29°44' W 095°12'0 0.0
2017-Dec-10 01:00N 29°44' W 095°12'0 0.0
2017-Dec-10 00:30N 29°44' W 095°12'0 0.0
2017-Dec-09 23:57N 29°44' W 095°12'0 0.0
2017-Dec-09 23:28N 29°44' W 095°12'1 1.4
2017-Dec-09 22:59N 29°45' W 095°12'1 2.6
2017-Dec-09 22:27N 29°45' W 095°10'3 6.6
2017-Dec-09 22:00N 29°43' W 095°13'1 0.2
2017-Dec-09 19:08N 29°44' W 095°14'2 5.1
2017-Dec-09 18:45N 29°45' W 095°12'2 6.0
2017-Dec-09 18:27N 29°45' W 095°10'3 5.9
2017-Dec-09 18:00N 29°44' W 095°07'2 0.8
2017-Dec-09 15:15N 29°46' W 095°06'0 0.0
2017-Dec-09 15:00N 29°46' W 095°06'0 0.0
2017-Dec-09 14:23N 29°46' W 095°06'0 0.0
2017-Dec-09 11:39N 29°46' W 095°06'0 0.0
2017-Dec-09 11:23N 29°46' W 095°06'0 0.0
2017-Dec-09 08:06N 29°46' W 095°06'0 2.6
2017-Dec-09 08:00N 29°46' W 095°06'2 4.7
2017-Dec-09 07:30N 29°44' W 095°07'2 4.3
2017-Dec-09 07:00N 29°44' W 095°10'0 0.0
2017-Dec-09 03:27N 29°44' W 095°10'3 5.6
2017-Dec-09 03:00N 29°44' W 095°07'2 0.1
2017-Dec-08 15:49N 29°45' W 095°06'1 0.1
2017-Dec-08 03:38N 29°46' W 095°06'0 0.0
2017-Dec-07 12:36N 29°46' W 095°06'0 0.0
2017-Dec-07 12:24N 29°46' W 095°06'0 0.0
2017-Dec-07 08:34N 29°46' W 095°06'0 0.0
2017-Dec-07 08:24N 29°46' W 095°06'0 0.0
2017-Dec-07 07:45N 29°46' W 095°06'0 0.0
2017-Dec-07 07:28N 29°46' W 095°06'0 0.0
2017-Dec-07 04:58N 29°46' W 095°06'1 0.7
2017-Dec-07 02:42N 29°47' W 095°04'1 4.3
2017-Dec-07 02:22N 29°46' W 095°05'2 1.6
2017-Dec-07 01:07N 29°44' W 095°07'0 0.0
2017-Dec-07 00:58N 29°44' W 095°07'0 0.0
2017-Dec-07 00:28N 29°44' W 095°07'0 0.0
2017-Dec-06 23:46N 29°44' W 095°07'0 0.0
2017-Dec-06 23:30N 29°44' W 095°07'0 0.0
2017-Dec-06 22:42N 29°44' W 095°07'0 0.0
2017-Dec-06 22:27N 29°44' W 095°07'0 0.0
2017-Dec-06 21:52N 29°44' W 095°07'0 0.0
2017-Dec-06 21:11N 29°44' W 095°07'  
2017-Dec-04 03:52N 29°46' W 095°05'2 6.4
2017-Dec-04 03:31N 29°44' W 095°07'3 6.3
2017-Dec-04 03:00N 29°45' W 095°11'0 0.1
2017-Dec-03 23:59N 29°45' W 095°11'1 2.3
2017-Dec-03 23:27N 29°45' W 095°10'2 0.3
2017-Dec-03 17:34N 29°44' W 095°08'0 0.2
2017-Dec-03 17:29N 29°44' W 095°08'4 0.3
2017-Dec-03 02:41N 29°47' W 095°05'0 0.5
2017-Dec-03 02:26N 29°47' W 095°05'1 1.1
2017-Dec-03 01:07N 29°46' W 095°05'1 5.7
2017-Dec-03 00:59N 29°45' W 095°04'3 5.8
2017-Dec-03 00:25N 29°43' W 095°01'2 5.3
2017-Dec-03 00:01N 29°42' W 094°59'3 6.5
2017-Dec-02 23:30N 29°39' W 094°58'3 6.6
2017-Dec-02 23:01N 29°36' W 094°57'3 6.7
2017-Dec-02 22:30N 29°33' W 094°54'  
Track history (hours):
 
Tides and Currents Weather Stations Pressure Air Temp Water Temp Dewpoint Dewpoint Depression Visibility Wind Speed Wind Dir Waves Ship Positions

Capt. Leroy

Owner: MISS MONIE TOWING INC, HULL, TX. More information available from US FCC via Universal Licensing System and Coast Guard Vessel Documentation Center.

Last reported at 2017-Dec-11 03:52 UTC. Time now 2017-Dec-13 22:35 UTC.
Position N 29°46' W 095°06'.

Length 21 m.

Type: Towing. MMSI: 366961670.

Date/timePositionNaut miles runAvg speedWind from/ knotsBaromVisibWave heightAir tempDewpointWater temp
2017-Dec-11 03:52N 29°46' W 095°06'2 4.2
2017-Dec-11 03:27N 29°45' W 095°06'3 6.7
2017-Dec-11 03:00N 29°44' W 095°10'2 0.9
2017-Dec-11 00:27N 29°44' W 095°12'3 6.0
2017-Dec-11 00:00N 29°44' W 095°09'4 6.0
2017-Dec-10 23:25N 29°46' W 095°05'1 1.6
2017-Dec-10 22:48N 29°46' W 095°06'1 4.8
2017-Dec-10 22:30N 29°46' W 095°05'3 6.2
2017-Dec-10 21:56N 29°44' W 095°01'2 5.8
2017-Dec-10 21:30N 29°42' W 094°60'1 2.2
2017-Dec-10 21:00N 29°41' W 095°01'0 0.0
2017-Dec-10 19:34N 29°41' W 095°01'0 0.1
2017-Dec-10 19:30N 29°41' W 095°01'0 0.0
2017-Dec-10 19:00N 29°41' W 095°01'0 0.0
2017-Dec-10 18:30N 29°41' W 095°01'0 0.0
2017-Dec-10 18:00N 29°41' W 095°01'7 0.6
2017-Dec-10 05:43N 29°46' W 095°06'1 4.2
2017-Dec-10 05:30N 29°46' W 095°05'1 2.0
2017-Dec-10 04:57N 29°45' W 095°06'0 0.0
2017-Dec-10 04:30N 29°45' W 095°06'0 0.0
2017-Dec-10 03:58N 29°45' W 095°06'0 0.0
2017-Dec-10 03:24N 29°45' W 095°06'0 0.0
2017-Dec-10 02:50N 29°45' W 095°06'2 4.9
2017-Dec-10 02:30N 29°44' W 095°08'3 6.9
2017-Dec-10 02:00N 29°45' W 095°12'1 1.5
2017-Dec-10 01:30N 29°44' W 095°12'0 0.0
2017-Dec-10 01:00N 29°44' W 095°12'0 0.0
2017-Dec-10 00:30N 29°44' W 095°12'0 0.0
2017-Dec-09 23:57N 29°44' W 095°12'0 0.0
2017-Dec-09 23:28N 29°44' W 095°12'1 1.4
2017-Dec-09 22:59N 29°45' W 095°12'1 2.6
2017-Dec-09 22:27N 29°45' W 095°10'3 6.6
2017-Dec-09 22:00N 29°43' W 095°13'1 0.2
2017-Dec-09 19:08N 29°44' W 095°14'2 5.1
2017-Dec-09 18:45N 29°45' W 095°12'2 6.0
2017-Dec-09 18:27N 29°45' W 095°10'3 5.9
2017-Dec-09 18:00N 29°44' W 095°07'2 0.8
2017-Dec-09 15:15N 29°46' W 095°06'0 0.0
2017-Dec-09 15:00N 29°46' W 095°06'0 0.0
2017-Dec-09 14:23N 29°46' W 095°06'0 0.0
2017-Dec-09 11:39N 29°46' W 095°06'0 0.0
2017-Dec-09 11:23N 29°46' W 095°06'0 0.0
2017-Dec-09 08:06N 29°46' W 095°06'0 2.6
2017-Dec-09 08:00N 29°46' W 095°06'2 4.7
2017-Dec-09 07:30N 29°44' W 095°07'2 4.3
2017-Dec-09 07:00N 29°44' W 095°10'0 0.0
2017-Dec-09 03:27N 29°44' W 095°10'3 5.6
2017-Dec-09 03:00N 29°44' W 095°07'2 0.1
2017-Dec-08 15:49N 29°45' W 095°06'1 0.1
2017-Dec-08 03:38N 29°46' W 095°06'0 0.0
2017-Dec-07 12:36N 29°46' W 095°06'0 0.0
2017-Dec-07 12:24N 29°46' W 095°06'0 0.0
2017-Dec-07 08:34N 29°46' W 095°06'0 0.0
2017-Dec-07 08:24N 29°46' W 095°06'0 0.0
2017-Dec-07 07:45N 29°46' W 095°06'0 0.0
2017-Dec-07 07:28N 29°46' W 095°06'0 0.0
2017-Dec-07 04:58N 29°46' W 095°06'1 0.7
2017-Dec-07 02:42N 29°47' W 095°04'1 4.3
2017-Dec-07 02:22N 29°46' W 095°05'2 1.6
2017-Dec-07 01:07N 29°44' W 095°07'0 0.0
2017-Dec-07 00:58N 29°44' W 095°07'0 0.0
2017-Dec-07 00:28N 29°44' W 095°07'0 0.0
2017-Dec-06 23:46N 29°44' W 095°07'0 0.0
2017-Dec-06 23:30N 29°44' W 095°07'0 0.0
2017-Dec-06 22:42N 29°44' W 095°07'0 0.0
2017-Dec-06 22:27N 29°44' W 095°07'0 0.0
2017-Dec-06 21:52N 29°44' W 095°07'0 0.0
2017-Dec-06 21:11N 29°44' W 095°07'  
2017-Dec-04 03:52N 29°46' W 095°05'2 6.4
2017-Dec-04 03:31N 29°44' W 095°07'3 6.3
2017-Dec-04 03:00N 29°45' W 095°11'0 0.1
2017-Dec-03 23:59N 29°45' W 095°11'1 2.3
2017-Dec-03 23:27N 29°45' W 095°10'2 0.3
2017-Dec-03 17:34N 29°44' W 095°08'0 0.2
2017-Dec-03 17:29N 29°44' W 095°08'4 0.3
2017-Dec-03 02:41N 29°47' W 095°05'0 0.5
2017-Dec-03 02:26N 29°47' W 095°05'1 1.1
2017-Dec-03 01:07N 29°46' W 095°05'1 5.7
2017-Dec-03 00:59N 29°45' W 095°04'3 5.8
2017-Dec-03 00:25N 29°43' W 095°01'2 5.3
2017-Dec-03 00:01N 29°42' W 094°59'3 6.5
2017-Dec-02 23:30N 29°39' W 094°58'3 6.6
2017-Dec-02 23:01N 29°36' W 094°57'3 6.7
2017-Dec-02 22:30N 29°33' W 094°54'  

Dump ship's entire track history